sensor_id;sensor_type;location;lat;lon;timestamp;temperature;humidity
68922;DHT22;55959;51.244;5.724;2023-03-01T00:02:04;3.90;54.90
68922;DHT22;55959;51.244;5.724;2023-03-01T00:04:30;3.80;55.00
68922;DHT22;55959;51.244;5.724;2023-03-01T00:06:57;3.80;55.10
68922;DHT22;55959;51.244;5.724;2023-03-01T00:09:22;3.80;55.20
68922;DHT22;55959;51.244;5.724;2023-03-01T00:11:49;3.80;55.20
68922;DHT22;55959;51.244;5.724;2023-03-01T00:14:15;3.70;55.20
68922;DHT22;55959;51.244;5.724;2023-03-01T00:16:45;3.70;55.30
68922;DHT22;55959;51.244;5.724;2023-03-01T00:19:14;3.70;55.40
68922;DHT22;55959;51.244;5.724;2023-03-01T00:21:44;3.70;55.60
68922;DHT22;55959;51.244;5.724;2023-03-01T00:24:11;3.70;55.80
68922;DHT22;55959;51.244;5.724;2023-03-01T00:26:37;3.60;55.80
68922;DHT22;55959;51.244;5.724;2023-03-01T00:29:03;3.60;55.90
68922;DHT22;55959;51.244;5.724;2023-03-01T00:31:31;3.60;56.00
68922;DHT22;55959;51.244;5.724;2023-03-01T00:34:00;3.60;56.00
68922;DHT22;55959;51.244;5.724;2023-03-01T00:36:34;3.60;56.00
68922;DHT22;55959;51.244;5.724;2023-03-01T00:39:02;3.60;56.10
68922;DHT22;55959;51.244;5.724;2023-03-01T00:41:30;3.50;56.10
68922;DHT22;55959;51.244;5.724;2023-03-01T00:43:56;3.50;56.20
68922;DHT22;55959;51.244;5.724;2023-03-01T00:46:25;3.50;56.30
68922;DHT22;55959;51.244;5.724;2023-03-01T00:48:53;3.50;56.30
68922;DHT22;55959;51.244;5.724;2023-03-01T00:51:22;3.50;56.40
68922;DHT22;55959;51.244;5.724;2023-03-01T00:53:55;3.50;56.30
68922;DHT22;55959;51.244;5.724;2023-03-01T00:56:23;3.40;56.30
68922;DHT22;55959;51.244;5.724;2023-03-01T00:58:49;3.40;56.40
68922;DHT22;55959;51.244;5.724;2023-03-01T01:01:19;3.40;56.40
68922;DHT22;55959;51.244;5.724;2023-03-01T01:03:53;3.40;56.40
68922;DHT22;55959;51.244;5.724;2023-03-01T01:06:24;3.40;56.40
68922;DHT22;55959;51.244;5.724;2023-03-01T01:09:02;3.40;56.40
68922;DHT22;55959;51.244;5.724;2023-03-01T01:11:30;3.30;56.40
68922;DHT22;55959;51.244;5.724;2023-03-01T01:13:57;3.30;56.50
68922;DHT22;55959;51.244;5.724;2023-03-01T01:16:25;3.30;56.50
68922;DHT22;55959;51.244;5.724;2023-03-01T01:18:52;3.30;56.60
68922;DHT22;55959;51.244;5.724;2023-03-01T01:21:21;3.30;56.70
68922;DHT22;55959;51.244;5.724;2023-03-01T01:23:48;3.20;56.60
68922;DHT22;55959;51.244;5.724;2023-03-01T01:26:21;3.20;56.60
68922;DHT22;55959;51.244;5.724;2023-03-01T01:28:51;3.20;56.70
68922;DHT22;55959;51.244;5.724;2023-03-01T01:31:20;3.20;56.80
68922;DHT22;55959;51.244;5.724;2023-03-01T01:33:49;3.20;56.90
68922;DHT22;55959;51.244;5.724;2023-03-01T01:36:16;3.10;56.80
68922;DHT22;55959;51.244;5.724;2023-03-01T01:38:42;3.10;56.90
68922;DHT22;55959;51.244;5.724;2023-03-01T01:41:10;3.10;57.00
68922;DHT22;55959;51.244;5.724;2023-03-01T01:44:08;3.10;57.00
68922;DHT22;55959;51.244;5.724;2023-03-01T01:47:05;3.00;57.00
68922;DHT22;55959;51.244;5.724;2023-03-01T01:49:42;3.00;57.00
68922;DHT22;55959;51.244;5.724;2023-03-01T01:52:20;3.00;57.10
68922;DHT22;55959;51.244;5.724;2023-03-01T01:55:22;3.00;57.20
68922;DHT22;55959;51.244;5.724;2023-03-01T01:57:57;3.00;57.20
68922;DHT22;55959;51.244;5.724;2023-03-01T02:00:28;2.90;57.20
68922;DHT22;55959;51.244;5.724;2023-03-01T02:03:01;2.90;57.20
68922;DHT22;55959;51.244;5.724;2023-03-01T02:08:36;2.90;57.30
68922;DHT22;55959;51.244;5.724;2023-03-01T02:11:05;2.80;57.30
68922;DHT22;55959;51.244;5.724;2023-03-01T02:13:33;2.80;57.40
68922;DHT22;55959;51.244;5.724;2023-03-01T02:16:03;2.80;57.40
68922;DHT22;55959;51.244;5.724;2023-03-01T02:18:30;2.80;57.50
68922;DHT22;55959;51.244;5.724;2023-03-01T02:23:47;2.70;57.70
68922;DHT22;55959;51.244;5.724;2023-03-01T02:26:38;2.70;57.60
68922;DHT22;55959;51.244;5.724;2023-03-01T02:29:07;2.70;57.60
68922;DHT22;55959;51.244;5.724;2023-03-01T02:31:33;2.70;57.60
68922;DHT22;55959;51.244;5.724;2023-03-01T02:34:18;2.60;58.30
68922;DHT22;55959;51.244;5.724;2023-03-01T02:37:01;2.70;57.80
68922;DHT22;55959;51.244;5.724;2023-03-01T02:39:53;2.60;57.70
68922;DHT22;55959;51.244;5.724;2023-03-01T02:42:28;2.60;57.80
68922;DHT22;55959;51.244;5.724;2023-03-01T02:44:57;2.60;57.90
68922;DHT22;55959;51.244;5.724;2023-03-01T02:47:23;2.60;58.00
68922;DHT22;55959;51.244;5.724;2023-03-01T02:49:50;2.50;58.10
68922;DHT22;55959;51.244;5.724;2023-03-01T02:55:26;2.50;58.30
68922;DHT22;55959;51.244;5.724;2023-03-01T02:57:53;2.50;58.50
68922;DHT22;55959;51.244;5.724;2023-03-01T03:00:24;2.40;58.70
68922;DHT22;55959;51.244;5.724;2023-03-01T03:02:54;2.40;58.80
68922;DHT22;55959;51.244;5.724;2023-03-01T03:05:27;2.40;58.80
68922;DHT22;55959;51.244;5.724;2023-03-01T03:07:58;2.40;58.80
68922;DHT22;55959;51.244;5.724;2023-03-01T03:10:30;2.40;58.90
68922;DHT22;55959;51.244;5.724;2023-03-01T03:13:00;2.40;59.00
68922;DHT22;55959;51.244;5.724;2023-03-01T03:15:28;2.40;59.10
68922;DHT22;55959;51.244;5.724;2023-03-01T03:17:55;2.30;59.10
68922;DHT22;55959;51.244;5.724;2023-03-01T03:20:25;2.30;59.20
68922;DHT22;55959;51.244;5.724;2023-03-01T03:22:55;2.30;59.20
68922;DHT22;55959;51.244;5.724;2023-03-01T03:25:22;2.30;59.20
68922;DHT22;55959;51.244;5.724;2023-03-01T03:27:50;2.40;59.20
68922;DHT22;55959;51.244;5.724;2023-03-01T03:30:23;2.30;59.10
68922;DHT22;55959;51.244;5.724;2023-03-01T03:32:55;2.30;59.10
68922;DHT22;55959;51.244;5.724;2023-03-01T03:35:28;2.40;59.20
68922;DHT22;55959;51.244;5.724;2023-03-01T03:37:58;2.30;59.10
68922;DHT22;55959;51.244;5.724;2023-03-01T03:43:07;2.30;59.20
68922;DHT22;55959;51.244;5.724;2023-03-01T03:45:35;2.20;59.10
68922;DHT22;55959;51.244;5.724;2023-03-01T03:48:02;2.20;59.20
68922;DHT22;55959;51.244;5.724;2023-03-01T03:50:30;2.20;59.20
68922;DHT22;55959;51.244;5.724;2023-03-01T03:52:56;2.20;59.30
68922;DHT22;55959;51.244;5.724;2023-03-01T03:55:22;2.20;59.30
68922;DHT22;55959;51.244;5.724;2023-03-01T03:57:48;2.20;59.30
68922;DHT22;55959;51.244;5.724;2023-03-01T04:00:21;2.20;59.40
68922;DHT22;55959;51.244;5.724;2023-03-01T04:02:50;2.10;59.40
68922;DHT22;55959;51.244;5.724;2023-03-01T04:05:18;2.10;59.40
68922;DHT22;55959;51.244;5.724;2023-03-01T04:07:45;2.10;59.50
68922;DHT22;55959;51.244;5.724;2023-03-01T04:10:14;2.10;59.80
68922;DHT22;55959;51.244;5.724;2023-03-01T04:12:41;2.00;59.80
68922;DHT22;55959;51.244;5.724;2023-03-01T04:15:11;2.00;59.90
68922;DHT22;55959;51.244;5.724;2023-03-01T04:17:44;2.00;59.90
68922;DHT22;55959;51.244;5.724;2023-03-01T04:20:17;2.00;59.90
68922;DHT22;55959;51.244;5.724;2023-03-01T04:22:59;2.00;60.00
68922;DHT22;55959;51.244;5.724;2023-03-01T04:25:45;2.00;60.60
68922;DHT22;55959;51.244;5.724;2023-03-01T04:28:24;2.00;60.60
68922;DHT22;55959;51.244;5.724;2023-03-01T04:30:52;2.00;60.60
68922;DHT22;55959;51.244;5.724;2023-03-01T04:33:19;2.00;60.80
68922;DHT22;55959;51.244;5.724;2023-03-01T04:35:46;1.90;60.80
68922;DHT22;55959;51.244;5.724;2023-03-01T04:38:19;1.90;60.70
68922;DHT22;55959;51.244;5.724;2023-03-01T04:40:47;1.90;60.60
68922;DHT22;55959;51.244;5.724;2023-03-01T04:43:14;1.90;60.50
68922;DHT22;55959;51.244;5.724;2023-03-01T04:45:40;1.90;60.40
68922;DHT22;55959;51.244;5.724;2023-03-01T04:48:06;1.90;60.40
68922;DHT22;55959;51.244;5.724;2023-03-01T04:50:32;1.90;60.30
68922;DHT22;55959;51.244;5.724;2023-03-01T04:52:58;1.90;60.30
68922;DHT22;55959;51.244;5.724;2023-03-01T04:55:28;1.90;60.30
68922;DHT22;55959;51.244;5.724;2023-03-01T04:57:54;1.90;60.30
68922;DHT22;55959;51.244;5.724;2023-03-01T05:00:22;1.90;60.30
68922;DHT22;55959;51.244;5.724;2023-03-01T05:03:01;1.80;60.20
68922;DHT22;55959;51.244;5.724;2023-03-01T05:05:34;1.80;60.30
68922;DHT22;55959;51.244;5.724;2023-03-01T05:08:05;1.80;60.40
68922;DHT22;55959;51.244;5.724;2023-03-01T05:10:34;1.70;60.40
68922;DHT22;55959;51.244;5.724;2023-03-01T05:13:03;1.80;60.60
68922;DHT22;55959;51.244;5.724;2023-03-01T05:15:30;1.70;60.60
68922;DHT22;55959;51.244;5.724;2023-03-01T05:17:58;1.70;60.60
68922;DHT22;55959;51.244;5.724;2023-03-01T05:20:29;1.70;60.70
68922;DHT22;55959;51.244;5.724;2023-03-01T05:22:57;1.70;60.70
68922;DHT22;55959;51.244;5.724;2023-03-01T05:25:31;1.70;60.80
68922;DHT22;55959;51.244;5.724;2023-03-01T05:28:01;1.70;60.80
68922;DHT22;55959;51.244;5.724;2023-03-01T05:30:34;1.60;60.90
68922;DHT22;55959;51.244;5.724;2023-03-01T05:33:00;1.60;61.90
68922;DHT22;55959;51.244;5.724;2023-03-01T05:35:35;1.60;61.10
68922;DHT22;55959;51.244;5.724;2023-03-01T05:38:17;1.60;61.20
68922;DHT22;55959;51.244;5.724;2023-03-01T05:40:46;1.50;61.20
68922;DHT22;55959;51.244;5.724;2023-03-01T05:43:14;1.60;61.40
68922;DHT22;55959;51.244;5.724;2023-03-01T05:45:42;1.50;61.40
68922;DHT22;55959;51.244;5.724;2023-03-01T05:48:09;1.50;61.50
68922;DHT22;55959;51.244;5.724;2023-03-01T05:50:41;1.50;61.50
68922;DHT22;55959;51.244;5.724;2023-03-01T05:53:20;1.50;61.60
68922;DHT22;55959;51.244;5.724;2023-03-01T05:55:47;1.50;61.60
68922;DHT22;55959;51.244;5.724;2023-03-01T05:58:16;1.50;61.70
68922;DHT22;55959;51.244;5.724;2023-03-01T06:00:46;1.50;61.80
68922;DHT22;55959;51.244;5.724;2023-03-01T06:03:14;1.50;62.00
68922;DHT22;55959;51.244;5.724;2023-03-01T06:05:42;1.50;62.10
68922;DHT22;55959;51.244;5.724;2023-03-01T06:08:10;1.50;62.10
68922;DHT22;55959;51.244;5.724;2023-03-01T06:10:37;1.50;62.10
68922;DHT22;55959;51.244;5.724;2023-03-01T06:13:04;1.50;62.10
68922;DHT22;55959;51.244;5.724;2023-03-01T06:15:30;1.40;62.20
68922;DHT22;55959;51.244;5.724;2023-03-01T06:17:56;1.50;62.40
68922;DHT22;55959;51.244;5.724;2023-03-01T06:23:09;1.50;62.20
68922;DHT22;55959;51.244;5.724;2023-03-01T06:25:35;1.50;62.20
68922;DHT22;55959;51.244;5.724;2023-03-01T06:28:01;1.40;62.10
68922;DHT22;55959;51.244;5.724;2023-03-01T06:30:27;1.40;62.10
68922;DHT22;55959;51.244;5.724;2023-03-01T06:32:53;1.40;62.10
68922;DHT22;55959;51.244;5.724;2023-03-01T06:35:30;1.40;62.20
68922;DHT22;55959;51.244;5.724;2023-03-01T06:38:05;1.40;62.20
68922;DHT22;55959;51.244;5.724;2023-03-01T06:40:33;1.40;62.30
68922;DHT22;55959;51.244;5.724;2023-03-01T06:43:01;1.30;62.40
68922;DHT22;55959;51.244;5.724;2023-03-01T06:48:41;1.40;62.90
68922;DHT22;55959;51.244;5.724;2023-03-01T06:51:16;1.40;63.10
68922;DHT22;55959;51.244;5.724;2023-03-01T06:54:21;1.30;63.10
68922;DHT22;55959;51.244;5.724;2023-03-01T06:57:01;1.30;63.30
68922;DHT22;55959;51.244;5.724;2023-03-01T06:59:51;1.30;63.40
68922;DHT22;55959;51.244;5.724;2023-03-01T07:06:37;1.40;63.90
68922;DHT22;55959;51.244;5.724;2023-03-01T07:09:27;1.30;64.10
68922;DHT22;55959;51.244;5.724;2023-03-01T07:27:34;1.40;64.80
68922;DHT22;55959;51.244;5.724;2023-03-01T07:42:04;1.50;65.70
68922;DHT22;55959;51.244;5.724;2023-03-01T07:44:33;1.60;65.90
68922;DHT22;55959;51.244;5.724;2023-03-01T07:47:41;1.60;66.00
68922;DHT22;55959;51.244;5.724;2023-03-01T07:50:45;1.70;66.00
68922;DHT22;55959;51.244;5.724;2023-03-01T07:53:33;1.70;65.90
68922;DHT22;55959;51.244;5.724;2023-03-01T07:56:10;1.80;66.00
68922;DHT22;55959;51.244;5.724;2023-03-01T07:59:07;1.80;65.90
68922;DHT22;55959;51.244;5.724;2023-03-01T08:01:37;1.90;66.20
68922;DHT22;55959;51.244;5.724;2023-03-01T08:04:07;2.00;66.10
68922;DHT22;55959;51.244;5.724;2023-03-01T08:06:37;2.00;66.20
68922;DHT22;55959;51.244;5.724;2023-03-01T08:09:06;2.10;66.30
68922;DHT22;55959;51.244;5.724;2023-03-01T08:11:39;2.10;66.20
68922;DHT22;55959;51.244;5.724;2023-03-01T08:14:13;2.20;66.10
68922;DHT22;55959;51.244;5.724;2023-03-01T08:16:41;2.30;66.00
68922;DHT22;55959;51.244;5.724;2023-03-01T08:19:23;2.30;66.00
68922;DHT22;55959;51.244;5.724;2023-03-01T08:22:04;2.40;65.90
68922;DHT22;55959;51.244;5.724;2023-03-01T08:24:30;2.50;65.80
68922;DHT22;55959;51.244;5.724;2023-03-01T08:26:57;2.50;65.60
68922;DHT22;55959;51.244;5.724;2023-03-01T08:29:23;2.60;65.70
68922;DHT22;55959;51.244;5.724;2023-03-01T08:31:57;2.70;65.60
68922;DHT22;55959;51.244;5.724;2023-03-01T08:34:25;2.70;65.40
68922;DHT22;55959;51.244;5.724;2023-03-01T08:36:53;2.80;65.30
68922;DHT22;55959;51.244;5.724;2023-03-01T08:39:29;2.90;65.20
68922;DHT22;55959;51.244;5.724;2023-03-01T08:42:00;3.00;65.20
68922;DHT22;55959;51.244;5.724;2023-03-01T08:44:26;3.00;65.00
68922;DHT22;55959;51.244;5.724;2023-03-01T08:46:55;3.10;64.80
68922;DHT22;55959;51.244;5.724;2023-03-01T08:49:21;3.10;64.60
68922;DHT22;55959;51.244;5.724;2023-03-01T08:51:48;3.20;64.50
68922;DHT22;55959;51.244;5.724;2023-03-01T08:54:18;3.30;64.40
68922;DHT22;55959;51.244;5.724;2023-03-01T08:56:47;3.30;64.00
68922;DHT22;55959;51.244;5.724;2023-03-01T08:59:23;3.40;64.10
68922;DHT22;55959;51.244;5.724;2023-03-01T09:02:05;3.50;63.80
68922;DHT22;55959;51.244;5.724;2023-03-01T09:04:49;3.50;63.60
68922;DHT22;55959;51.244;5.724;2023-03-01T09:07:15;3.60;63.40
68922;DHT22;55959;51.244;5.724;2023-03-01T09:09:48;3.60;63.20
68922;DHT22;55959;51.244;5.724;2023-03-01T09:12:21;3.70;62.70
68922;DHT22;55959;51.244;5.724;2023-03-01T09:14:53;3.80;62.60
68922;DHT22;55959;51.244;5.724;2023-03-01T09:17:37;3.90;62.50
68922;DHT22;55959;51.244;5.724;2023-03-01T09:20:10;3.90;62.30
68922;DHT22;55959;51.244;5.724;2023-03-01T09:22:39;4.00;62.00
68922;DHT22;55959;51.244;5.724;2023-03-01T09:25:05;4.00;61.90
68922;DHT22;55959;51.244;5.724;2023-03-01T09:27:33;4.10;61.40
68922;DHT22;55959;51.244;5.724;2023-03-01T09:29:59;4.20;61.10
68922;DHT22;55959;51.244;5.724;2023-03-01T09:32:30;4.30;61.70
68922;DHT22;55959;51.244;5.724;2023-03-01T09:38:34;4.40;59.40
68922;DHT22;55959;51.244;5.724;2023-03-01T09:47:22;4.50;59.20
68922;DHT22;55959;51.244;5.724;2023-03-01T09:50:32;4.60;58.90
68922;DHT22;55959;51.244;5.724;2023-03-01T09:53:41;4.70;59.00
68922;DHT22;55959;51.244;5.724;2023-03-01T10:03:41;4.90;58.60
68922;DHT22;55959;51.244;5.724;2023-03-01T10:06:23;5.00;58.30
68922;DHT22;55959;51.244;5.724;2023-03-01T10:08:54;5.10;57.70
68922;DHT22;55959;51.244;5.724;2023-03-01T10:11:54;5.20;57.50
68922;DHT22;55959;51.244;5.724;2023-03-01T10:15:00;5.30;57.40
68922;DHT22;55959;51.244;5.724;2023-03-01T10:18:04;5.40;57.10
68922;DHT22;55959;51.244;5.724;2023-03-01T10:21:20;5.50;56.90
68922;DHT22;55959;51.244;5.724;2023-03-01T10:23:51;5.60;56.60
68922;DHT22;55959;51.244;5.724;2023-03-01T10:26:28;5.60;56.10
68922;DHT22;55959;51.244;5.724;2023-03-01T10:29:24;5.60;56.20
68922;DHT22;55959;51.244;5.724;2023-03-01T10:35:44;5.80;55.80
68922;DHT22;55959;51.244;5.724;2023-03-01T10:38:57;5.80;56.10
68922;DHT22;55959;51.244;5.724;2023-03-01T10:41:27;5.90;55.20
68922;DHT22;55959;51.244;5.724;2023-03-01T10:44:37;6.00;55.50
68922;DHT22;55959;51.244;5.724;2023-03-01T10:47:32;6.10;55.20
68922;DHT22;55959;51.244;5.724;2023-03-01T10:50:23;6.20;54.80
68922;DHT22;55959;51.244;5.724;2023-03-01T10:53:03;6.30;54.80
68922;DHT22;55959;51.244;5.724;2023-03-01T10:56:01;6.40;54.10
68922;DHT22;55959;51.244;5.724;2023-03-01T10:59:09;6.40;54.00
68922;DHT22;55959;51.244;5.724;2023-03-01T11:02:03;6.50;53.60
68922;DHT22;55959;51.244;5.724;2023-03-01T11:04:35;6.60;53.40
68922;DHT22;55959;51.244;5.724;2023-03-01T11:07:03;6.70;52.70
68922;DHT22;55959;51.244;5.724;2023-03-01T11:09:33;6.70;52.20
68922;DHT22;55959;51.244;5.724;2023-03-01T11:12:14;6.80;51.90
68922;DHT22;55959;51.244;5.724;2023-03-01T11:14:52;6.90;51.70
68922;DHT22;55959;51.244;5.724;2023-03-01T11:17:34;6.90;51.30
68922;DHT22;55959;51.244;5.724;2023-03-01T11:20:33;6.90;51.50
68922;DHT22;55959;51.244;5.724;2023-03-01T11:23:13;7.00;51.40
68922;DHT22;55959;51.244;5.724;2023-03-01T11:40:27;7.40;50.90
68922;DHT22;55959;51.244;5.724;2023-03-01T11:56:38;7.80;50.60
68922;DHT22;55959;51.244;5.724;2023-03-01T12:02:54;7.90;50.10
68922;DHT22;55959;51.244;5.724;2023-03-01T12:12:17;8.20;49.40
68922;DHT22;55959;51.244;5.724;2023-03-01T12:15:17;8.20;48.80
68922;DHT22;55959;51.244;5.724;2023-03-01T12:22:31;8.40;48.00
68922;DHT22;55959;51.244;5.724;2023-03-01T12:34:34;8.60;48.00
68922;DHT22;55959;51.244;5.724;2023-03-01T12:40:37;8.70;48.90
68922;DHT22;55959;51.244;5.724;2023-03-01T12:43:54;8.80;48.10
68922;DHT22;55959;51.244;5.724;2023-03-01T12:50:35;8.90;48.70
68922;DHT22;55959;51.244;5.724;2023-03-01T12:53:32;9.00;48.90
68922;DHT22;55959;51.244;5.724;2023-03-01T12:56:37;9.10;48.40
68922;DHT22;55959;51.244;5.724;2023-03-01T13:00:06;9.10;48.10
68922;DHT22;55959;51.244;5.724;2023-03-01T13:06:56;9.20;47.40
68922;DHT22;55959;51.244;5.724;2023-03-01T13:12:45;9.20;46.10
68922;DHT22;55959;51.244;5.724;2023-03-01T13:15:35;9.20;47.00
68922;DHT22;55959;51.244;5.724;2023-03-01T13:21:02;9.30;46.70
68922;DHT22;55959;51.244;5.724;2023-03-01T13:23:38;9.30;45.60
68922;DHT22;55959;51.244;5.724;2023-03-01T13:28:57;9.50;46.10
68922;DHT22;55959;51.244;5.724;2023-03-01T13:34:53;9.50;46.40
68922;DHT22;55959;51.244;5.724;2023-03-01T13:37:43;9.60;47.00
68922;DHT22;55959;51.244;5.724;2023-03-01T13:46:42;9.80;44.60
68922;DHT22;55959;51.244;5.724;2023-03-01T13:49:14;9.90;45.00
68922;DHT22;55959;51.244;5.724;2023-03-01T13:51:53;9.90;45.80
68922;DHT22;55959;51.244;5.724;2023-03-01T13:54:39;10.00;44.20
68922;DHT22;55959;51.244;5.724;2023-03-01T13:57:32;10.00;43.70
68922;DHT22;55959;51.244;5.724;2023-03-01T14:03:19;10.10;44.60
68922;DHT22;55959;51.244;5.724;2023-03-01T14:06:12;10.10;43.80
68922;DHT22;55959;51.244;5.724;2023-03-01T14:09:20;10.10;43.90
68922;DHT22;55959;51.244;5.724;2023-03-01T14:15:43;10.20;43.50
68922;DHT22;55959;51.244;5.724;2023-03-01T14:18:35;10.20;43.40
68922;DHT22;55959;51.244;5.724;2023-03-01T14:21:19;10.20;43.40
68922;DHT22;55959;51.244;5.724;2023-03-01T14:24:02;10.20;43.50
68922;DHT22;55959;51.244;5.724;2023-03-01T14:26:33;10.30;42.90
68922;DHT22;55959;51.244;5.724;2023-03-01T14:29:24;10.30;42.40
68922;DHT22;55959;51.244;5.724;2023-03-01T14:32:30;10.30;42.00
68922;DHT22;55959;51.244;5.724;2023-03-01T14:35:51;10.30;42.00
68922;DHT22;55959;51.244;5.724;2023-03-01T14:38:37;10.20;42.60
68922;DHT22;55959;51.244;5.724;2023-03-01T14:41:48;10.20;42.80
68922;DHT22;55959;51.244;5.724;2023-03-01T14:44:25;10.30;42.80
68922;DHT22;55959;51.244;5.724;2023-03-01T14:46:55;10.30;42.30
68922;DHT22;55959;51.244;5.724;2023-03-01T14:57:35;10.30;41.80
68922;DHT22;55959;51.244;5.724;2023-03-01T15:00:31;10.20;42.20
68922;DHT22;55959;51.244;5.724;2023-03-01T15:03:53;10.20;42.80
68922;DHT22;55959;51.244;5.724;2023-03-01T15:06:34;10.20;42.30
68922;DHT22;55959;51.244;5.724;2023-03-01T15:13:25;10.30;42.80
68922;DHT22;55959;51.244;5.724;2023-03-01T15:47:38;10.50;42.30
68922;DHT22;55959;51.244;5.724;2023-03-01T15:51:12;10.40;42.50
68922;DHT22;55959;51.244;5.724;2023-03-01T15:54:41;10.40;42.30
68922;DHT22;55959;51.244;5.724;2023-03-01T15:58:23;10.30;42.70
68922;DHT22;55959;51.244;5.724;2023-03-01T16:01:13;10.30;42.70
68922;DHT22;55959;51.244;5.724;2023-03-01T16:03:50;10.30;42.80
68922;DHT22;55959;51.244;5.724;2023-03-01T16:06:17;10.40;43.00
68922;DHT22;55959;51.244;5.724;2023-03-01T16:09:10;10.40;42.60
68922;DHT22;55959;51.244;5.724;2023-03-01T16:12:18;10.40;42.80
68922;DHT22;55959;51.244;5.724;2023-03-01T16:15:20;10.50;42.80
68922;DHT22;55959;51.244;5.724;2023-03-01T16:18:00;10.50;42.50
68922;DHT22;55959;51.244;5.724;2023-03-01T16:20:32;10.50;42.80
68922;DHT22;55959;51.244;5.724;2023-03-01T16:23:07;10.50;42.70
68922;DHT22;55959;51.244;5.724;2023-03-01T16:25:56;10.50;42.40
68922;DHT22;55959;51.244;5.724;2023-03-01T16:28:55;10.50;42.70
68922;DHT22;55959;51.244;5.724;2023-03-01T16:32:05;10.50;43.00
68922;DHT22;55959;51.244;5.724;2023-03-01T16:34:40;10.50;42.60
68922;DHT22;55959;51.244;5.724;2023-03-01T16:37:46;10.50;42.80
68922;DHT22;55959;51.244;5.724;2023-03-01T16:40:32;10.50;43.20
68922;DHT22;55959;51.244;5.724;2023-03-01T16:43:34;10.50;43.30
68922;DHT22;55959;51.244;5.724;2023-03-01T16:46:44;10.50;43.40
68922;DHT22;55959;51.244;5.724;2023-03-01T16:49:20;10.50;43.40
68922;DHT22;55959;51.244;5.724;2023-03-01T16:51:52;10.50;43.50
68922;DHT22;55959;51.244;5.724;2023-03-01T16:54:52;10.50;43.30
68922;DHT22;55959;51.244;5.724;2023-03-01T16:57:42;10.40;43.10
68922;DHT22;55959;51.244;5.724;2023-03-01T17:00:33;10.40;43.10
68922;DHT22;55959;51.244;5.724;2023-03-01T17:03:31;10.40;43.10
68922;DHT22;55959;51.244;5.724;2023-03-01T17:06:58;10.30;42.90
68922;DHT22;55959;51.244;5.724;2023-03-01T17:10:32;10.20;42.90
68922;DHT22;55959;51.244;5.724;2023-03-01T17:13:32;10.10;43.40
68922;DHT22;55959;51.244;5.724;2023-03-01T17:16:37;10.10;43.70
68922;DHT22;55959;51.244;5.724;2023-03-01T17:23:20;10.00;43.90
68922;DHT22;55959;51.244;5.724;2023-03-01T17:29:31;9.90;44.20
68922;DHT22;55959;51.244;5.724;2023-03-01T17:39:12;9.80;44.40
68922;DHT22;55959;51.244;5.724;2023-03-01T17:41:56;9.70;44.60
68922;DHT22;55959;51.244;5.724;2023-03-01T17:44:39;9.60;44.70
68922;DHT22;55959;51.244;5.724;2023-03-01T17:47:22;9.60;44.80
68922;DHT22;55959;51.244;5.724;2023-03-01T17:50:03;9.50;44.80
68922;DHT22;55959;51.244;5.724;2023-03-01T17:52:48;9.50;44.90
68922;DHT22;55959;51.244;5.724;2023-03-01T17:56:15;9.40;45.00
68922;DHT22;55959;51.244;5.724;2023-03-01T17:58:51;9.40;45.10
68922;DHT22;55959;51.244;5.724;2023-03-01T18:01:26;9.30;45.10
68922;DHT22;55959;51.244;5.724;2023-03-01T18:04:24;9.20;45.20
68922;DHT22;55959;51.244;5.724;2023-03-01T18:06:56;9.20;45.40
68922;DHT22;55959;51.244;5.724;2023-03-01T18:09:40;9.20;45.50
68922;DHT22;55959;51.244;5.724;2023-03-01T18:12:12;9.10;45.60
68922;DHT22;55959;51.244;5.724;2023-03-01T18:14:39;9.10;45.50
68922;DHT22;55959;51.244;5.724;2023-03-01T18:17:05;9.00;45.50
68922;DHT22;55959;51.244;5.724;2023-03-01T18:19:43;9.00;45.70
68922;DHT22;55959;51.244;5.724;2023-03-01T18:22:20;8.90;45.70
68922;DHT22;55959;51.244;5.724;2023-03-01T18:24:59;8.90;45.70
68922;DHT22;55959;51.244;5.724;2023-03-01T18:27:40;8.80;45.80
68922;DHT22;55959;51.244;5.724;2023-03-01T18:30:10;8.80;45.90
68922;DHT22;55959;51.244;5.724;2023-03-01T18:33:06;8.70;46.00
68922;DHT22;55959;51.244;5.724;2023-03-01T18:35:35;8.70;46.10
68922;DHT22;55959;51.244;5.724;2023-03-01T18:38:07;8.70;46.10
68922;DHT22;55959;51.244;5.724;2023-03-01T18:40:43;8.60;46.10
68922;DHT22;55959;51.244;5.724;2023-03-01T18:43:23;8.50;46.20
68922;DHT22;55959;51.244;5.724;2023-03-01T18:46:28;8.40;46.20
68922;DHT22;55959;51.244;5.724;2023-03-01T18:49:13;8.50;46.40
68922;DHT22;55959;51.244;5.724;2023-03-01T18:51:51;8.40;46.40
68922;DHT22;55959;51.244;5.724;2023-03-01T18:54:18;8.30;46.40
68922;DHT22;55959;51.244;5.724;2023-03-01T18:56:48;8.20;46.50
68922;DHT22;55959;51.244;5.724;2023-03-01T18:59:15;8.20;46.50
68922;DHT22;55959;51.244;5.724;2023-03-01T19:01:43;8.20;46.60
68922;DHT22;55959;51.244;5.724;2023-03-01T19:04:13;8.20;46.70
68922;DHT22;55959;51.244;5.724;2023-03-01T19:06:40;8.20;46.70
68922;DHT22;55959;51.244;5.724;2023-03-01T19:09:07;8.10;46.70
68922;DHT22;55959;51.244;5.724;2023-03-01T19:11:35;8.00;46.70
68922;DHT22;55959;51.244;5.724;2023-03-01T19:14:03;8.00;46.80
68922;DHT22;55959;51.244;5.724;2023-03-01T19:16:31;8.00;46.90
68922;DHT22;55959;51.244;5.724;2023-03-01T19:19:02;7.90;46.90
68922;DHT22;55959;51.244;5.724;2023-03-01T19:21:30;7.90;46.90
68922;DHT22;55959;51.244;5.724;2023-03-01T19:23:58;7.80;46.90
68922;DHT22;55959;51.244;5.724;2023-03-01T19:26:26;7.80;47.10
68922;DHT22;55959;51.244;5.724;2023-03-01T19:28:53;7.80;47.10
68922;DHT22;55959;51.244;5.724;2023-03-01T19:31:22;7.70;47.10
68922;DHT22;55959;51.244;5.724;2023-03-01T19:33:50;7.70;47.10
68922;DHT22;55959;51.244;5.724;2023-03-01T19:36:17;7.60;47.10
68922;DHT22;55959;51.244;5.724;2023-03-01T19:38:47;7.60;47.20
68922;DHT22;55959;51.244;5.724;2023-03-01T19:41:17;7.50;47.30
68922;DHT22;55959;51.244;5.724;2023-03-01T19:43:44;7.50;47.30
68922;DHT22;55959;51.244;5.724;2023-03-01T19:46:25;7.50;47.50
68922;DHT22;55959;51.244;5.724;2023-03-01T19:57:14;7.30;47.90
68922;DHT22;55959;51.244;5.724;2023-03-01T20:00:26;7.20;48.00
68922;DHT22;55959;51.244;5.724;2023-03-01T20:03:50;7.10;48.10
68922;DHT22;55959;51.244;5.724;2023-03-01T20:07:26;7.10;48.60
68922;DHT22;55959;51.244;5.724;2023-03-01T20:10:16;7.00;48.70
68922;DHT22;55959;51.244;5.724;2023-03-01T20:12:48;7.00;48.80
68922;DHT22;55959;51.244;5.724;2023-03-01T20:15:28;6.90;48.80
68922;DHT22;55959;51.244;5.724;2023-03-01T20:21:05;6.90;48.90
68922;DHT22;55959;51.244;5.724;2023-03-01T20:27:38;6.90;49.00
68922;DHT22;55959;51.244;5.724;2023-03-01T20:31:13;6.90;48.90
68922;DHT22;55959;51.244;5.724;2023-03-01T20:34:34;6.80;48.90
68922;DHT22;55959;51.244;5.724;2023-03-01T20:37:26;6.80;49.00
68922;DHT22;55959;51.244;5.724;2023-03-01T20:40:03;6.80;48.90
68922;DHT22;55959;51.244;5.724;2023-03-01T20:49:29;6.70;49.00
68922;DHT22;55959;51.244;5.724;2023-03-01T20:52:30;6.70;49.10
68922;DHT22;55959;51.244;5.724;2023-03-01T20:55:32;6.70;49.10
68922;DHT22;55959;51.244;5.724;2023-03-01T20:58:29;6.60;49.20